Iranshahr, Iran
Current Conditions -  °F | °C
As of 2:00 PM on Friday 24 Oct 2014 (Local Time) from OIZI Reporting Station
Clear Clear  
Wind Chill: 93°   Ceiling: Unl
Heat Index: 93°   Visibility: 4mi
Dew Point: 36°   Wind: 9mph
Humidity: 13%   Direction: 220°SW
Pressure: 29.88"   Gusts: NA
Location:  27.21°N, 60.69°E
Report Text: OIZI 241100Z 22008KT 6000 SKC 34/02 Q1012
Loading
Personal Weather Stations






























Interactive Weather Map
Tropical Storm Tracking
New forecast layout! Learn more

10-Day Weather Forecast

Advertisements
Track Severe Weather on mobile